Time;durP1;ratioP1;P1;durP2;ratioP2;P2;SDS_P1;SDS_P2;PMS_P1;PMS_P2;Temp;Humidity;BMP_temperature;BMP_pressure;BME280_temperature;BME280_humidity;BME280_pressure;Samples;Min_cycle;Max_cycle;Signal;HPM_P1;HPM_P2
2022/02/15 00:02:04;;;;;;;;;;;;;;;;;;5101137;28;20287;-78
2022/02/15 00:04:29;;;;;;;;;;;;;;;;;;5102301;28;19923;-79
2022/02/15 00:06:55;;;;;;;;;;;;;;;;;;5099666;28;19922;-78
2022/02/15 00:09:20;;;;;;;;;;;;;;;;;;5104845;28;19920;-78
2022/02/15 00:11:45;;;;;;;;;;;;;;;;;;5105326;28;20239;-78
2022/02/15 00:14:11;;;;;;;;;;;;;;;;;;5103741;28;19949;-78
2022/02/15 00:16:36;;;;;;;;;;;;;;;;;;5102504;28;19937;-78
2022/02/15 00:19:01;;;;;;;;;;;;;;;;;;5104988;28;20437;-78
2022/02/15 00:21:27;;;;;;;;;;;;;;;;;;5103663;28;19981;-78
2022/02/15 00:23:52;;;;;;;;;;;;;;;;;;5104801;28;19923;-78
2022/02/15 00:26:18;;;;;;;;;;;;;;;;;;5103825;28;20366;-78
2022/02/15 00:28:43;;;;;;;;;;;;;;;;;;5105704;28;19951;-78
2022/02/15 00:31:11;;;;;;;;;;;;;;;;;;5105554;28;20412;-78
2022/02/15 00:33:36;;;;;;;;;;;;;;;;;;5105335;28;19916;-78
2022/02/15 00:36:02;;;;;;;;;;;;;;;;;;5101530;28;20327;-78
2022/02/15 00:38:27;;;;;;;;;;;;;;;;;;5101240;28;19923;-78
2022/02/15 00:40:54;;;;;;;;;;;;;;;;;;5103037;28;19976;-78
2022/02/15 00:43:19;;;;;;;;;;;;;;;;;;5102140;28;19920;-78
2022/02/15 00:45:44;;;;;;;;;;;;;;;;;;5103668;28;19988;-78
2022/02/15 00:48:10;;;;;;;;;;;;;;;;;;5121439;28;19965;-78
2022/02/15 00:50:36;;;;;;;;;;;;;;;;;;5120989;28;19919;-78
2022/02/15 00:53:01;;;;;;;;;;;;;;;;;;5122810;28;19922;-78
2022/02/15 00:55:26;;;;;;;;;;;;;;;;;;5121862;28;19915;-78
2022/02/15 00:57:52;;;;;;;;;;;;;;;;;;5120538;28;20377;-78
2022/02/15 01:00:17;;;;;;;;;;;;;;;;;;5119435;28;19923;-78
2022/02/15 01:02:44;;;;;;;;;;;;;;;;;;5119681;28;19912;-78
2022/02/15 01:05:09;;;;;;;;;;;;;;;;;;5120724;28;20262;-78
2022/02/15 01:07:37;;;;;;;;;;;;;;;;;;5120455;28;19915;-78
2022/02/15 01:10:03;;;;;;;;;;;;;;;;;;5125190;28;19920;-78
2022/02/15 01:12:28;;;;;;;;;;;;;;;;;;5124082;28;19966;-79
2022/02/15 01:14:53;;;;;;;;;;;;;;;;;;5122814;28;19916;-78
2022/02/15 01:17:19;;;;;;;;;;;;;;;;;;5105790;28;19923;-78
2022/02/15 01:19:44;;;;;;;;;;;;;;;;;;5102501;28;19920;-78
2022/02/15 01:22:10;;;;;;;;;;;;;;;;;;5101367;28;19922;-78
2022/02/15 01:24:35;;;;;;;;;;;;;;;;;;5102696;28;19916;-78
2022/02/15 01:27:01;;;;;;;;;;;;;;;;;;5105057;28;19916;-78
2022/02/15 01:29:27;;;;;;;;;;;;;;;;;;5104933;28;19919;-78
2022/02/15 01:31:53;;;;;;;;;;;;;;;;;;5102643;28;20311;-78
2022/02/15 01:34:19;;;;;;;;;;;;;;;;;;5102920;28;19916;-78
2022/02/15 01:36:44;;;;;;;;;;;;;;;;;;5102659;28;19953;-78
2022/02/15 01:39:17;;;;;;;;;;;;;;;;;;5102273;28;19926;-78
2022/02/15 01:41:43;;;;;;;;;;;;;;;;;;5102128;28;19916;-79
2022/02/15 01:44:08;;;;;;;;;;;;;;;;;;5103403;28;19916;-79
2022/02/15 01:46:34;;;;;;;;;;;;;;;;;;5111898;28;20269;-78
2022/02/15 01:48:59;;;;;;;;;;;;;;;;;;5122183;28;19916;-78
2022/02/15 01:51:27;;;;;;;;;;;;;;;;;;5121471;28;19920;-78
2022/02/15 01:53:53;;;;;;;;;;;;;;;;;;5123394;28;19915;-78
2022/02/15 01:56:18;;;;;;;;;;;;;;;;;;5121385;28;19916;-79
2022/02/15 01:58:44;;;;;;;;;;;;;;;;;;5121249;28;20346;-78
2022/02/15 02:01:16;;;;;;;;;;;;;;;;;;5121603;28;19922;-78
2022/02/15 02:03:46;;;;;;;;;;;;;;;;;;5102069;28;20002;-79
2022/02/15 02:06:13;;;;;;;;;;;;;;;;;;5101099;28;19923;-78
2022/02/15 02:08:39;;;;;;;;;;;;;;;;;;5102426;28;19916;-78
2022/02/15 02:11:04;;;;;;;;;;;;;;;;;;5100637;28;19920;-78
2022/02/15 02:13:54;;;;;;;;;;;;;;;;;;5087294;28;19923;-78
2022/02/15 02:16:31;;;;;;;;;;;;;;;;;;5101542;28;19916;-78
2022/02/15 02:19:23;;;;;;;;;;;;;;;;;;5099600;28;19920;-78
2022/02/15 02:21:50;;;;;;;;;;;;;;;;;;5100978;28;19923;-78
2022/02/15 02:24:18;;;;;;;;;;;;;;;;;;5102200;28;20373;-78
2022/02/15 02:26:46;;;;;;;;;;;;;;;;;;5099778;28;20027;-78
2022/02/15 02:29:11;;;;;;;;;;;;;;;;;;5100295;28;19952;-78
2022/02/15 02:31:43;;;;;;;;;;;;;;;;;;5114735;28;19938;-78
2022/02/15 02:34:11;;;;;;;;;;;;;;;;;;5120960;28;19916;-78
2022/02/15 02:36:47;;;;;;;;;;;;;;;;;;5119778;28;19923;-78
2022/02/15 02:39:15;;;;;;;;;;;;;;;;;;5120737;28;19919;-78
2022/02/15 02:41:41;;;;;;;;;;;;;;;;;;5125535;28;19908;-78
2022/02/15 02:44:07;;;;;;;;;;;;;;;;;;5128477;28;20015;-79
2022/02/15 02:46:33;;;;;;;;;;;;;;;;;;5128008;28;19915;-79
2022/02/15 02:48:59;;;;;;;;;;;;;;;;;;5126835;28;19951;-79
2022/02/15 02:51:25;;;;;;;;;;;;;;;;;;5125342;28;19920;-79
2022/02/15 02:53:50;;;;;;;;;;;;;;;;;;5124590;28;19916;-79
2022/02/15 02:56:17;;;;;;;;;;;;;;;;;;5123330;28;19922;-79
2022/02/15 02:58:42;;;;;;;;;;;;;;;;;;5123043;28;19916;-79
2022/02/15 03:01:08;;;;;;;;;;;;;;;;;;5110437;28;20526;-79
2022/02/15 03:03:37;;;;;;;;;;;;;;;;;;5102279;28;20378;-79
2022/02/15 03:06:04;;;;;;;;;;;;;;;;;;5101660;28;19923;-79
2022/02/15 03:08:30;;;;;;;;;;;;;;;;;;5103107;28;20281;-79
2022/02/15 03:10:55;;;;;;;;;;;;;;;;;;5102180;28;19923;-79
2022/02/15 03:13:36;;;;;;;;;;;;;;;;;;5099143;28;20045;-79
2022/02/15 03:16:05;;;;;;;;;;;;;;;;;;5097520;28;19916;-80
2022/02/15 03:18:30;;;;;;;;;;;;;;;;;;5101499;28;20392;-80
2022/02/15 03:21:02;;;;;;;;;;;;;;;;;;5099577;28;19923;-80
2022/02/15 03:23:27;;;;;;;;;;;;;;;;;;5097759;28;19920;-79
2022/02/15 03:25:53;;;;;;;;;;;;;;;;;;5098916;28;20309;-80
2022/02/15 03:28:21;;;;;;;;;;;;;;;;;;5100437;28;20003;-80
2022/02/15 03:30:46;;;;;;;;;;;;;;;;;;5107623;28;19962;-80
2022/02/15 03:33:12;;;;;;;;;;;;;;;;;;5103565;28;19916;-80
2022/02/15 03:35:39;;;;;;;;;;;;;;;;;;5099349;28;19916;-80
2022/02/15 03:38:08;;;;;;;;;;;;;;;;;;5100474;28;19966;-80
2022/02/15 03:43:24;;;;;;;;;;;;;;;;;;5098447;28;19990;-80
2022/02/15 03:45:51;;;;;;;;;;;;;;;;;;5097729;28;19922;-80
2022/02/15 03:48:32;;;;;;;;;;;;;;;;;;5097554;28;20407;-80
2022/02/15 03:50:57;;;;;;;;;;;;;;;;;;5100592;28;19924;-80
2022/02/15 03:53:24;;;;;;;;;;;;;;;;;;5097080;28;19920;-81
2022/02/15 03:55:49;;;;;;;;;;;;;;;;;;5098656;28;19965;-78
2022/02/15 03:58:15;;;;;;;;;;;;;;;;;;5095582;28;19977;-79
2022/02/15 04:00:42;;;;;;;;;;;;;;;;;;5077889;28;20030;-79
2022/02/15 04:03:16;;;;;;;;;;;;;;;;;;5094545;28;20368;-79
2022/02/15 04:05:43;;;;;;;;;;;;;;;;;;5094551;28;19916;-79
2022/02/15 04:08:09;;;;;;;;;;;;;;;;;;5094783;28;19916;-79
2022/02/15 04:10:36;;;;;;;;;;;;;;;;;;5094531;28;19931;-79
2022/02/15 04:13:03;;;;;;;;;;;;;;;;;;5095498;28;20379;-79
2022/02/15 04:15:28;;;;;;;;;;;;;;;;;;5095761;28;20014;-79
2022/02/15 04:17:56;;;;;;;;;;;;;;;;;;5095449;28;19923;-79
2022/02/15 04:20:22;;;;;;;;;;;;;;;;;;5095386;28;19916;-79
2022/02/15 04:22:47;;;;;;;;;;;;;;;;;;5095413;28;20312;-79
2022/02/15 04:25:14;;;;;;;;;;;;;;;;;;5095188;28;20320;-79
2022/02/15 04:27:40;;;;;;;;;;;;;;;;;;5094958;28;19950;-79
2022/02/15 04:30:06;;;;;;;;;;;;;;;;;;5095305;28;19924;-79
2022/02/15 04:32:33;;;;;;;;;;;;;;;;;;5094587;28;19916;-79
2022/02/15 04:34:59;;;;;;;;;;;;;;;;;;5094627;28;19950;-79
2022/02/15 04:37:24;;;;;;;;;;;;;;;;;;5094710;28;20015;-78
2022/02/15 04:39:51;;;;;;;;;;;;;;;;;;5095291;28;19916;-78
2022/02/15 04:42:18;;;;;;;;;;;;;;;;;;5078103;28;19916;-78
2022/02/15 04:44:44;;;;;;;;;;;;;;;;;;5094235;28;19920;-79
2022/02/15 04:47:12;;;;;;;;;;;;;;;;;;5078050;28;19916;-79
2022/02/15 04:49:38;;;;;;;;;;;;;;;;;;5094177;28;20018;-79
2022/02/15 04:52:05;;;;;;;;;;;;;;;;;;5094120;28;19963;-79
2022/02/15 04:54:31;;;;;;;;;;;;;;;;;;5077682;28;20270;-78
2022/02/15 04:56:57;;;;;;;;;;;;;;;;;;5097313;28;19916;-78
2022/02/15 04:59:22;;;;;;;;;;;;;;;;;;5098880;28;19965;-78
2022/02/15 05:01:49;;;;;;;;;;;;;;;;;;5100012;28;20242;-78
2022/02/15 05:07:02;;;;;;;;;;;;;;;;;;5097983;28;19976;-79
2022/02/15 05:09:32;;;;;;;;;;;;;;;;;;5097521;28;19920;-78
2022/02/15 05:11:57;;;;;;;;;;;;;;;;;;5080392;28;19920;-79
2022/02/15 05:14:23;;;;;;;;;;;;;;;;;;5097451;28;19951;-78
2022/02/15 05:16:51;;;;;;;;;;;;;;;;;;5098097;28;20392;-78
2022/02/15 05:19:19;;;;;;;;;;;;;;;;;;5080931;28;19916;-78
2022/02/15 05:21:52;;;;;;;;;;;;;;;;;;5097111;28;19969;-78
2022/02/15 05:24:18;;;;;;;;;;;;;;;;;;5097332;28;19916;-78
2022/02/15 05:26:54;;;;;;;;;;;;;;;;;;5096953;28;19916;-79
2022/02/15 05:29:34;;;;;;;;;;;;;;;;;;5097065;28;19920;-78
2022/02/15 05:32:12;;;;;;;;;;;;;;;;;;5096219;28;19941;-79
2022/02/15 05:34:42;;;;;;;;;;;;;;;;;;5098595;28;20398;-79
2022/02/15 05:37:09;;;;;;;;;;;;;;;;;;5096584;28;19916;-78
2022/02/15 05:39:39;;;;;;;;;;;;;;;;;;5096999;28;19916;-79
2022/02/15 05:42:06;;;;;;;;;;;;;;;;;;5096877;28;19920;-78
2022/02/15 05:44:32;;;;;;;;;;;;;;;;;;5079893;28;19916;-79
2022/02/15 05:47:00;;;;;;;;;;;;;;;;;;5097813;28;19973;-79
2022/02/15 05:49:25;;;;;;;;;;;;;;;;;;5096558;28;19928;-78
2022/02/15 05:51:55;;;;;;;;;;;;;;;;;;5094482;28;19924;-78
2022/02/15 05:54:27;;;;;;;;;;;;;;;;;;5095622;28;19923;-78
2022/02/15 05:56:54;;;;;;;;;;;;;;;;;;5096670;28;19915;-79
2022/02/15 05:59:30;;;;;;;;;;;;;;;;;;5096716;28;19981;-78
2022/02/15 06:02:21;;;;;;;;;;;;;;;;;;5089671;28;19920;-79
2022/02/15 06:05:03;;;;;;;;;;;;;;;;;;5082263;28;19916;-78
2022/02/15 06:07:31;;;;;;;;;;;;;;;;;;5096012;28;19923;-78
2022/02/15 06:10:17;;;;;;;;;;;;;;;;;;5096962;28;20374;-78
2022/02/15 06:12:45;;;;;;;;;;;;;;;;;;5096580;28;19916;-77
2022/02/15 06:15:12;;;;;;;;;;;;;;;;;;5097849;28;20271;-78
2022/02/15 06:17:57;;;;;;;;;;;;;;;;;;5096839;28;19957;-79
2022/02/15 06:20:22;;;;;;;;;;;;;;;;;;5096670;28;20297;-80
2022/02/15 06:22:49;;;;;;;;;;;;;;;;;;5096085;28;19923;-78
2022/02/15 06:25:15;;;;;;;;;;;;;;;;;;5096577;28;20018;-80
2022/02/15 06:27:49;;;;;;;;;;;;;;;;;;5096232;28;19916;-78
2022/02/15 06:30:32;;;;;;;;;;;;;;;;;;5094966;28;19920;-75
2022/02/15 06:33:02;;;;;;;;;;;;;;;;;;5095017;28;19916;-77
2022/02/15 06:35:27;;;;;;;;;;;;;;;;;;5096510;28;19916;-78
2022/02/15 06:37:58;;;;;;;;;;;;;;;;;;5094690;28;20007;-76
2022/02/15 06:40:25;;;;;;;;;;;;;;;;;;5095015;28;19927;-77
2022/02/15 06:42:55;;;;;;;;;;;;;;;;;;5094602;28;20284;-78
2022/02/15 06:45:22;;;;;;;;;;;;;;;;;;5095156;28;20427;-77
2022/02/15 06:47:48;;;;;;;;;;;;;;;;;;5095569;28;20007;-78
2022/02/15 06:50:14;;;;;;;;;;;;;;;;;;5095682;28;20297;-78
2022/02/15 06:52:51;;;;;;;;;;;;;;;;;;5095203;28;19974;-77
2022/02/15 06:55:24;;;;;;;;;;;;;;;;;;5095137;28;19941;-77
2022/02/15 06:57:49;;;;;;;;;;;;;;;;;;5093599;28;20019;-76
2022/02/15 07:00:16;;;;;;;;;;;;;;;;;;5093434;28;19956;-76
2022/02/15 07:02:42;;;;;;;;;;;;;;;;;;5093857;28;19923;-77
2022/02/15 07:05:10;;;;;;;;;;;;;;;;;;5085166;28;19916;-76
2022/02/15 07:07:38;;;;;;;;;;;;;;;;;;5078677;28;20405;-75
2022/02/15 07:10:08;;;;;;;;;;;;;;;;;;5072919;28;19924;-75
2022/02/15 07:12:43;;;;;;;;;;;;;;;;;;5072951;28;19924;-75
2022/02/15 07:15:17;;;;;;;;;;;;;;;;;;5071984;28;20285;-75
2022/02/15 07:17:48;;;;;;;;;;;;;;;;;;5071773;28;20003;-75
2022/02/15 07:20:33;;;;;;;;;;;;;;;;;;5072256;28;20378;-76
2022/02/15 07:23:17;;;;;;;;;;;;;;;;;;5072652;28;20392;-76
2022/02/15 07:26:05;;;;;;;;;;;;;;;;;;5073713;28;20362;-76
2022/02/15 07:28:57;;;;;;;;;;;;;;;;;;5070967;28;19920;-75
2022/02/15 07:31:24;;;;;;;;;;;;;;;;;;5056304;28;19918;-76
2022/02/15 07:33:53;;;;;;;;;;;;;;;;;;5089878;28;19927;-76
2022/02/15 07:36:19;;;;;;;;;;;;;;;;;;5093803;28;19916;-77
2022/02/15 07:38:45;;;;;;;;;;;;;;;;;;5094883;28;19920;-77
2022/02/15 07:41:10;;;;;;;;;;;;;;;;;;5094140;28;19916;-77
2022/02/15 07:43:36;;;;;;;;;;;;;;;;;;5097023;28;19941;-77
2022/02/15 07:46:10;;;;;;;;;;;;;;;;;;5093322;28;19920;-76
2022/02/15 07:48:36;;;;;;;;;;;;;;;;;;5094392;28;20385;-76
2022/02/15 07:51:02;;;;;;;;;;;;;;;;;;5093963;28;19920;-77
2022/02/15 07:53:27;;;;;;;;;;;;;;;;;;5093633;28;19939;-78
2022/02/15 07:55:52;;;;;;;;;;;;;;;;;;5091052;28;19916;-75
2022/02/15 07:58:18;;;;;;;;;;;;;;;;;;5093389;28;19923;-75
2022/02/15 08:00:43;;;;;;;;;;;;;;;;;;5093416;28;19923;-74
2022/02/15 08:03:10;;;;;;;;;;;;;;;;;;5095878;28;19916;-76
2022/02/15 08:05:36;;;;;;;;;;;;;;;;;;5095832;28;19920;-77
2022/02/15 08:08:06;;;;;;;;;;;;;;;;;;5091261;28;20509;-76
2022/02/15 08:10:32;;;;;;;;;;;;;;;;;;5093010;28;19927;-77
2022/02/15 08:12:58;;;;;;;;;;;;;;;;;;5094349;28;19919;-78
2022/02/15 08:15:24;;;;;;;;;;;;;;;;;;5086110;28;19942;-76
2022/02/15 08:17:49;;;;;;;;;;;;;;;;;;5074861;28;19922;-79
2022/02/15 08:20:15;;;;;;;;;;;;;;;;;;5075815;28;20385;-78
2022/02/15 08:22:41;;;;;;;;;;;;;;;;;;5076018;28;20374;-76
2022/02/15 08:25:07;;;;;;;;;;;;;;;;;;5093248;28;20263;-78
2022/02/15 08:27:32;;;;;;;;;;;;;;;;;;5093699;28;19919;-76
2022/02/15 08:29:58;;;;;;;;;;;;;;;;;;5095279;28;20416;-77
2022/02/15 08:32:23;;;;;;;;;;;;;;;;;;5097590;28;19916;-78
2022/02/15 08:34:48;;;;;;;;;;;;;;;;;;5098694;28;20010;-77
2022/02/15 08:37:14;;;;;;;;;;;;;;;;;;5098372;28;19986;-78
2022/02/15 08:39:39;;;;;;;;;;;;;;;;;;5102056;28;20301;-80
2022/02/15 08:42:04;;;;;;;;;;;;;;;;;;5102722;28;20015;-79
2022/02/15 08:44:36;;;;;;;;;;;;;;;;;;5105770;28;19973;-79
2022/02/15 08:47:06;;;;;;;;;;;;;;;;;;5102835;28;19927;-78
2022/02/15 08:49:32;;;;;;;;;;;;;;;;;;5084762;28;19926;-79
2022/02/15 08:51:57;;;;;;;;;;;;;;;;;;5102069;28;19971;-80
2022/02/15 08:54:22;;;;;;;;;;;;;;;;;;5102163;28;20304;-79
2022/02/15 08:56:47;;;;;;;;;;;;;;;;;;5098615;28;19919;-77
2022/02/15 08:59:13;;;;;;;;;;;;;;;;;;5097079;28;19916;-77
2022/02/15 09:01:38;;;;;;;;;;;;;;;;;;5097235;28;19915;-79
2022/02/15 09:04:04;;;;;;;;;;;;;;;;;;5098357;28;19988;-77
2022/02/15 09:06:29;;;;;;;;;;;;;;;;;;5095063;28;19919;-77
2022/02/15 09:08:54;;;;;;;;;;;;;;;;;;5095917;28;19916;-78
2022/02/15 09:11:20;;;;;;;;;;;;;;;;;;5096527;28;19920;-77
2022/02/15 09:13:45;;;;;;;;;;;;;;;;;;5096833;28;20016;-77
2022/02/15 09:16:10;;;;;;;;;;;;;;;;;;5099062;28;19923;-78
2022/02/15 09:18:36;;;;;;;;;;;;;;;;;;5097453;28;19961;-77
2022/02/15 09:21:02;;;;;;;;;;;;;;;;;;5097038;28;19970;-78
2022/02/15 09:23:28;;;;;;;;;;;;;;;;;;5095553;28;19916;-77
2022/02/15 09:25:54;;;;;;;;;;;;;;;;;;5095822;28;20006;-78
2022/02/15 09:28:19;;;;;;;;;;;;;;;;;;5097203;28;19951;-78
2022/02/15 09:30:46;;;;;;;;;;;;;;;;;;5095980;28;19929;-77
2022/02/15 09:33:12;;;;;;;;;;;;;;;;;;5097567;28;19923;-78
2022/02/15 09:35:37;;;;;;;;;;;;;;;;;;5096656;28;19916;-77
2022/02/15 09:38:03;;;;;;;;;;;;;;;;;;5096755;28;20022;-77
2022/02/15 09:40:28;;;;;;;;;;;;;;;;;;5095691;28;20414;-78
2022/02/15 09:42:53;;;;;;;;;;;;;;;;;;5096098;28;19916;-77
2022/02/15 09:45:19;;;;;;;;;;;;;;;;;;5097589;28;19922;-78
2022/02/15 09:47:44;;;;;;;;;;;;;;;;;;5099494;28;19959;-78
2022/02/15 09:50:10;;;;;;;;;;;;;;;;;;5099358;28;19927;-77
2022/02/15 09:52:35;;;;;;;;;;;;;;;;;;5098036;28;19966;-78
2022/02/15 09:55:01;;;;;;;;;;;;;;;;;;5097459;28;20010;-77
2022/02/15 09:57:27;;;;;;;;;;;;;;;;;;5098368;28;19916;-77
2022/02/15 09:59:55;;;;;;;;;;;;;;;;;;5097911;28;19950;-78
2022/02/15 10:02:20;;;;;;;;;;;;;;;;;;5097463;28;20349;-76
2022/02/15 10:04:50;;;;;;;;;;;;;;;;;;5095876;28;20014;-76
2022/02/15 10:07:15;;;;;;;;;;;;;;;;;;5095830;28;20362;-76
2022/02/15 10:09:43;;;;;;;;;;;;;;;;;;5095389;28;20020;-76
2022/02/15 10:12:10;;;;;;;;;;;;;;;;;;5095692;28;19920;-76
2022/02/15 10:14:36;;;;;;;;;;;;;;;;;;5095521;28;19935;-76
2022/02/15 10:17:02;;;;;;;;;;;;;;;;;;5095596;28;19916;-76
2022/02/15 10:19:29;;;;;;;;;;;;;;;;;;5095497;28;19922;-75
2022/02/15 10:21:56;;;;;;;;;;;;;;;;;;5095564;28;19920;-77
2022/02/15 10:24:23;;;;;;;;;;;;;;;;;;5095400;28;19916;-75
2022/02/15 10:26:56;;;;;;;;;;;;;;;;;;5095338;28;19916;-75
2022/02/15 10:29:22;;;;;;;;;;;;;;;;;;5095261;28;19916;-76
2022/02/15 10:31:47;;;;;;;;;;;;;;;;;;5094651;28;19920;-76
2022/02/15 10:34:12;;;;;;;;;;;;;;;;;;5095366;28;19939;-79
2022/02/15 10:36:38;;;;;;;;;;;;;;;;;;5098594;28;19958;-76
2022/02/15 10:39:03;;;;;;;;;;;;;;;;;;5097993;28;19990;-77
2022/02/15 10:41:32;;;;;;;;;;;;;;;;;;5095764;28;20377;-76
2022/02/15 10:43:58;;;;;;;;;;;;;;;;;;5096374;28;19927;-76
2022/02/15 10:46:25;;;;;;;;;;;;;;;;;;5095157;28;20006;-75
2022/02/15 10:48:52;;;;;;;;;;;;;;;;;;5094549;28;19939;-75
2022/02/15 10:51:18;;;;;;;;;;;;;;;;;;5095020;28;19920;-76
2022/02/15 10:53:44;;;;;;;;;;;;;;;;;;5095135;28;20011;-76
2022/02/15 10:56:09;;;;;;;;;;;;;;;;;;5095201;28;20020;-77
2022/02/15 10:58:34;;;;;;;;;;;;;;;;;;5095051;28;20250;-78
2022/02/15 11:01:04;;;;;;;;;;;;;;;;;;5096482;28;19916;-78
2022/02/15 11:03:31;;;;;;;;;;;;;;;;;;5095526;28;20399;-80
2022/02/15 11:05:57;;;;;;;;;;;;;;;;;;5092210;28;19916;-77
2022/02/15 11:08:23;;;;;;;;;;;;;;;;;;5094663;28;20442;-77
2022/02/15 11:10:54;;;;;;;;;;;;;;;;;;5094173;28;19920;-77
2022/02/15 11:13:20;;;;;;;;;;;;;;;;;;5096264;28;20007;-79
2022/02/15 11:15:50;;;;;;;;;;;;;;;;;;5095110;28;20413;-80
2022/02/15 11:18:26;;;;;;;;;;;;;;;;;;5093847;28;19986;-76
2022/02/15 11:20:51;;;;;;;;;;;;;;;;;;5097089;28;20548;-80
2022/02/15 11:23:21;;;;;;;;;;;;;;;;;;5098184;28;20397;-81
2022/02/15 11:25:47;;;;;;;;;;;;;;;;;;5097056;28;19927;-79
2022/02/15 11:28:15;;;;;;;;;;;;;;;;;;5095112;28;19916;-77
2022/02/15 11:31:02;;;;;;;;;;;;;;;;;;5088527;28;20003;-77
2022/02/15 11:33:31;;;;;;;;;;;;;;;;;;5076305;28;20602;-78
2022/02/15 11:36:02;;;;;;;;;;;;;;;;;;5077095;28;19955;-80
2022/02/15 11:38:28;;;;;;;;;;;;;;;;;;5079410;28;19960;-81
2022/02/15 11:40:57;;;;;;;;;;;;;;;;;;5080508;28;20347;-79
2022/02/15 11:43:23;;;;;;;;;;;;;;;;;;5080578;28;19924;-79
2022/02/15 11:45:48;;;;;;;;;;;;;;;;;;5079618;28;20378;-80
2022/02/15 11:48:13;;;;;;;;;;;;;;;;;;5083774;28;19986;-80
2022/02/15 11:50:40;;;;;;;;;;;;;;;;;;5082557;28;19985;-80
2022/02/15 11:53:05;;;;;;;;;;;;;;;;;;5079831;28;19923;-81
2022/02/15 11:55:33;;;;;;;;;;;;;;;;;;5077577;28;20019;-76
2022/02/15 11:57:58;;;;;;;;;;;;;;;;;;5056811;28;19978;-79
2022/02/15 12:00:30;;;;;;;;;;;;;;;;;;5074228;28;20362;-76
2022/02/15 12:02:56;;;;;;;;;;;;;;;;;;5072504;28;19967;-77
2022/02/15 12:05:26;;;;;;;;;;;;;;;;;;5078862;28;19951;-76
2022/02/15 12:07:51;;;;;;;;;;;;;;;;;;5079058;28;20336;-76
2022/02/15 12:10:18;;;;;;;;;;;;;;;;;;5080151;28;19920;-76
2022/02/15 12:12:44;;;;;;;;;;;;;;;;;;5080079;28;20287;-76
2022/02/15 12:15:10;;;;;;;;;;;;;;;;;;5080172;28;19917;-76
2022/02/15 12:17:42;;;;;;;;;;;;;;;;;;5080346;28;19935;-76
2022/02/15 12:20:08;;;;;;;;;;;;;;;;;;5079803;28;20374;-76
2022/02/15 12:22:36;;;;;;;;;;;;;;;;;;5079842;28;19916;-76
2022/02/15 12:25:44;;;;;;;;;;;;;;;;;;5026231;28;19923;-76
2022/02/15 12:28:09;;;;;;;;;;;;;;;;;;5073052;28;19942;-76
2022/02/15 12:30:41;;;;;;;;;;;;;;;;;;5086358;28;20472;-76
2022/02/15 12:33:09;;;;;;;;;;;;;;;;;;5100101;28;19979;-76
2022/02/15 12:35:34;;;;;;;;;;;;;;;;;;5099913;28;19923;-77
2022/02/15 12:38:00;;;;;;;;;;;;;;;;;;5099965;28;19916;-76
2022/02/15 12:40:27;;;;;;;;;;;;;;;;;;5098962;28;19927;-77
2022/02/15 12:42:52;;;;;;;;;;;;;;;;;;5098892;28;19916;-76
2022/02/15 12:45:18;;;;;;;;;;;;;;;;;;5100063;28;19916;-77
2022/02/15 12:47:43;;;;;;;;;;;;;;;;;;5098897;28;19965;-76
2022/02/15 12:50:10;;;;;;;;;;;;;;;;;;5099676;28;19952;-76
2022/02/15 12:52:35;;;;;;;;;;;;;;;;;;5099014;28;19920;-76
2022/02/15 12:55:09;;;;;;;;;;;;;;;;;;5100000;28;19922;-76
2022/02/15 12:57:36;;;;;;;;;;;;;;;;;;5100290;28;20078;-76
2022/02/15 13:00:03;;;;;;;;;;;;;;;;;;5101702;28;19924;-76
2022/02/15 13:02:29;;;;;;;;;;;;;;;;;;5120082;28;19915;-76
2022/02/15 13:04:55;;;;;;;;;;;;;;;;;;5120463;28;20396;-76
2022/02/15 13:07:22;;;;;;;;;;;;;;;;;;5120255;28;20375;-76
2022/02/15 13:09:48;;;;;;;;;;;;;;;;;;5120208;28;20014;-76
2022/02/15 13:12:18;;;;;;;;;;;;;;;;;;5119143;28;19919;-76
2022/02/15 13:14:48;;;;;;;;;;;;;;;;;;5120401;28;19915;-77
2022/02/15 13:17:14;;;;;;;;;;;;;;;;;;5116380;28;19916;-77
2022/02/15 13:19:39;;;;;;;;;;;;;;;;;;5116453;28;20048;-76
2022/02/15 13:22:09;;;;;;;;;;;;;;;;;;5117272;28;19963;-77
2022/02/15 13:24:35;;;;;;;;;;;;;;;;;;5115743;28;19919;-76
2022/02/15 13:27:00;;;;;;;;;;;;;;;;;;5116861;28;19923;-77
2022/02/15 13:29:34;;;;;;;;;;;;;;;;;;5117047;28;19916;-76
2022/02/15 13:31:59;;;;;;;;;;;;;;;;;;5116738;28;19920;-76
2022/02/15 13:34:26;;;;;;;;;;;;;;;;;;5117164;28;19939;-75
2022/02/15 13:36:56;;;;;;;;;;;;;;;;;;5117036;28;19922;-76
2022/02/15 13:39:21;;;;;;;;;;;;;;;;;;5115309;28;19923;-75
2022/02/15 13:41:48;;;;;;;;;;;;;;;;;;5116645;28;20331;-76
2022/02/15 13:44:14;;;;;;;;;;;;;;;;;;5116776;28;19969;-76
2022/02/15 13:46:40;;;;;;;;;;;;;;;;;;5116941;28;19951;-76
2022/02/15 13:49:06;;;;;;;;;;;;;;;;;;5117555;28;20460;-78
2022/02/15 13:51:31;;;;;;;;;;;;;;;;;;5119354;28;19919;-78
2022/02/15 13:53:57;;;;;;;;;;;;;;;;;;5116588;28;20274;-76
2022/02/15 13:56:24;;;;;;;;;;;;;;;;;;5120248;28;20484;-77
2022/02/15 13:58:49;;;;;;;;;;;;;;;;;;5126095;28;19915;-78
2022/02/15 14:01:14;;;;;;;;;;;;;;;;;;5124549;28;19916;-78
2022/02/15 14:03:39;;;;;;;;;;;;;;;;;;5123178;28;20326;-77
2022/02/15 14:06:05;;;;;;;;;;;;;;;;;;5123397;28;19915;-78
2022/02/15 14:08:30;;;;;;;;;;;;;;;;;;5123238;28;19923;-78
2022/02/15 14:10:56;;;;;;;;;;;;;;;;;;5122414;28;20011;-77
2022/02/15 14:13:21;;;;;;;;;;;;;;;;;;5122967;28;19923;-77
2022/02/15 14:15:46;;;;;;;;;;;;;;;;;;5121494;28;20385;-78
2022/02/15 14:18:11;;;;;;;;;;;;;;;;;;5124955;28;19938;-77
2022/02/15 14:20:37;;;;;;;;;;;;;;;;;;5128040;28;19957;-78
2022/02/15 14:23:02;;;;;;;;;;;;;;;;;;5135063;28;19915;-78
2022/02/15 14:25:28;;;;;;;;;;;;;;;;;;5130738;28;19923;-78
2022/02/15 14:27:55;;;;;;;;;;;;;;;;;;5127510;28;19969;-78
2022/02/15 14:30:22;;;;;;;;;;;;;;;;;;5121617;28;19920;-78
2022/02/15 14:32:48;;;;;;;;;;;;;;;;;;5107224;28;20338;-78
2022/02/15 14:35:14;;;;;;;;;;;;;;;;;;5104455;28;19922;-78
2022/02/15 14:37:40;;;;;;;;;;;;;;;;;;5104944;28;19962;-78
2022/02/15 14:40:05;;;;;;;;;;;;;;;;;;5105021;28;19920;-77
2022/02/15 14:42:33;;;;;;;;;;;;;;;;;;5105820;28;20296;-78
2022/02/15 14:44:58;;;;;;;;;;;;;;;;;;5101660;28;19973;-77
2022/02/15 14:47:24;;;;;;;;;;;;;;;;;;5098633;28;19920;-78
2022/02/15 14:49:49;;;;;;;;;;;;;;;;;;5102705;28;19920;-78
2022/02/15 14:52:14;;;;;;;;;;;;;;;;;;5103569;28;19920;-78
2022/02/15 14:54:40;;;;;;;;;;;;;;;;;;5102576;28;19916;-78
2022/02/15 14:57:05;;;;;;;;;;;;;;;;;;5103198;28;19922;-78
2022/02/15 14:59:30;;;;;;;;;;;;;;;;;;5101231;28;19920;-78
2022/02/15 15:01:55;;;;;;;;;;;;;;;;;;5120418;28;19919;-77
2022/02/15 15:04:21;;;;;;;;;;;;;;;;;;5124027;28;19915;-77
2022/02/15 15:06:48;;;;;;;;;;;;;;;;;;5124006;28;19936;-77
2022/02/15 15:09:14;;;;;;;;;;;;;;;;;;5121410;28;19916;-77
2022/02/15 15:11:40;;;;;;;;;;;;;;;;;;5120940;28;19919;-77
2022/02/15 15:14:05;;;;;;;;;;;;;;;;;;5122265;28;19916;-77
2022/02/15 15:16:30;;;;;;;;;;;;;;;;;;5120590;28;19916;-77
2022/02/15 15:18:59;;;;;;;;;;;;;;;;;;5118530;28;19920;-77
2022/02/15 15:21:27;;;;;;;;;;;;;;;;;;5115861;28;19965;-77
2022/02/15 15:23:52;;;;;;;;;;;;;;;;;;5116739;28;19919;-77
2022/02/15 15:26:18;;;;;;;;;;;;;;;;;;5115999;28;19915;-77
2022/02/15 15:28:44;;;;;;;;;;;;;;;;;;5116708;28;19940;-77
2022/02/15 15:31:09;;;;;;;;;;;;;;;;;;5104697;28;19945;-77
2022/02/15 15:33:35;;;;;;;;;;;;;;;;;;5095880;28;20002;-77
2022/02/15 15:36:01;;;;;;;;;;;;;;;;;;5095986;28;19916;-77
2022/02/15 15:38:26;;;;;;;;;;;;;;;;;;5095794;28;19920;-77
2022/02/15 15:40:52;;;;;;;;;;;;;;;;;;5096187;28;20365;-78
2022/02/15 15:43:17;;;;;;;;;;;;;;;;;;5096124;28;19916;-77
2022/02/15 15:45:45;;;;;;;;;;;;;;;;;;5095979;28;19923;-77
2022/02/15 15:48:10;;;;;;;;;;;;;;;;;;5095034;28;20423;-77
2022/02/15 15:50:36;;;;;;;;;;;;;;;;;;5095699;28;19924;-77
2022/02/15 15:53:01;;;;;;;;;;;;;;;;;;5095772;28;20010;-77
2022/02/15 15:55:27;;;;;;;;;;;;;;;;;;5095777;28;19916;-77
2022/02/15 15:57:53;;;;;;;;;;;;;;;;;;5095641;28;19916;-77
2022/02/15 16:00:18;;;;;;;;;;;;;;;;;;5090731;28;20006;-77
2022/02/15 16:02:44;;;;;;;;;;;;;;;;;;5075351;28;19986;-77
2022/02/15 16:05:09;;;;;;;;;;;;;;;;;;5075172;28;19916;-77
2022/02/15 16:07:34;;;;;;;;;;;;;;;;;;5074892;28;19939;-78
2022/02/15 16:10:00;;;;;;;;;;;;;;;;;;5075151;28;20019;-77
2022/02/15 16:12:25;;;;;;;;;;;;;;;;;;5075863;28;19916;-77
2022/02/15 16:14:51;;;;;;;;;;;;;;;;;;5074631;28;19917;-77
2022/02/15 16:17:17;;;;;;;;;;;;;;;;;;5075431;28;20420;-77
2022/02/15 16:19:42;;;;;;;;;;;;;;;;;;5074999;28;19938;-77
2022/02/15 16:22:08;;;;;;;;;;;;;;;;;;5076793;28;19923;-78
2022/02/15 16:24:33;;;;;;;;;;;;;;;;;;5077315;28;19916;-78
2022/02/15 16:26:59;;;;;;;;;;;;;;;;;;5074749;28;19963;-78
2022/02/15 16:29:26;;;;;;;;;;;;;;;;;;5075886;28;19917;-77
2022/02/15 16:31:52;;;;;;;;;;;;;;;;;;5108146;28;19924;-77
2022/02/15 16:34:19;;;;;;;;;;;;;;;;;;5117333;28;19922;-77
2022/02/15 16:36:44;;;;;;;;;;;;;;;;;;5116205;28;19924;-77
2022/02/15 16:39:10;;;;;;;;;;;;;;;;;;5115469;28;19916;-77
2022/02/15 16:41:39;;;;;;;;;;;;;;;;;;5115485;28;19923;-77
2022/02/15 16:44:05;;;;;;;;;;;;;;;;;;5115731;28;19940;-77
2022/02/15 16:46:31;;;;;;;;;;;;;;;;;;5114592;28;19922;-77
2022/02/15 16:48:57;;;;;;;;;;;;;;;;;;5114663;28;20359;-77
2022/02/15 16:51:24;;;;;;;;;;;;;;;;;;5115184;28;20297;-77
2022/02/15 16:53:49;;;;;;;;;;;;;;;;;;5117430;28;19950;-77